Time,TemperatureF,DewpointF,PressureIn,WindDirection,WindDirectionDegrees,WindSpeedMPH,WindSpeedGustMPH,Humidity,HourlyPrecipIn,Conditions,Clouds,dailyrainin,SoftwareType,DateUTC
2013-06-03 00:04:00,66.0,66.0,29.78,WSW,247,0.0,0.0,100,0.00,,,0.00,TxWx,2013-06-03 04:04:00,
2013-06-03 00:10:00,66.0,66.0,29.78,WSW,247,0.0,0.0,100,0.00,,,0.00,TxWx,2013-06-03 04:10:00,
2013-06-03 00:15:00,66.0,66.0,29.78,WSW,247,0.0,0.0,100,0.00,,,0.00,TxWx,2013-06-03 04:15:00,
2013-06-03 00:20:00,66.0,66.0,29.79,WSW,247,0.0,0.0,100,0.00,,,0.00,TxWx,2013-06-03 04:20:00,
2013-06-03 00:21:00,56.0,53.0,29.83,WSW,247,0.0,0.0,89,0.00,,,0.05,TxWx,2013-06-03 04:21:00,
2013-06-03 00:22:00,56.0,53.0,29.83,WSW,247,0.0,0.0,89,0.00,,,0.05,TxWx,2013-06-03 04:22:00,
2013-06-03 00:23:00,56.0,52.0,29.83,WSW,247,0.0,0.0,88,0.00,,,0.05,TxWx,2013-06-03 04:23:00,
2013-06-03 00:24:00,56.0,52.0,29.83,WSW,247,0.0,0.0,88,0.00,,,0.05,TxWx,2013-06-03 04:24:00,
2013-06-03 00:25:00,66.0,66.0,29.79,WSW,247,0.0,0.0,100,0.00,,,0.00,TxWx,2013-06-03 04:25:00,
2013-06-03 00:30:00,65.0,65.0,29.79,WSW,247,0.0,0.0,100,0.60,,,0.02,TxWx,2013-06-03 04:30:00,
2013-06-03 00:35:00,65.0,65.0,29.79,WSW,247,0.0,0.0,100,0.60,,,0.04,TxWx,2013-06-03 04:35:00,
2013-06-03 00:40:00,66.0,66.0,29.78,WSW,247,0.0,0.0,100,0.60,,,0.04,TxWx,2013-06-03 04:40:00,
2013-06-03 00:45:00,66.0,66.0,29.78,WSW,247,0.0,0.0,100,0.60,,,0.04,TxWx,2013-06-03 04:45:00,
2013-06-03 00:50:00,66.0,66.0,29.78,WSW,247,0.0,0.0,100,0.00,,,0.04,TxWx,2013-06-03 04:50:00,
2013-06-03 00:56:00,66.0,66.0,29.78,WSW,247,0.0,0.0,100,0.00,,,0.04,TxWx,2013-06-03 04:56:00,
2013-06-03 01:01:00,66.0,66.0,29.78,WSW,247,0.0,0.0,100,0.00,,,0.04,TxWx,2013-06-03 05:01:00,
2013-06-03 01:12:00,66.0,66.0,29.78,WSW,247,0.0,0.0,100,0.00,,,0.04,TxWx,2013-06-03 05:12:00,
2013-06-03 01:17:00,66.0,66.0,29.77,WSW,247,0.0,0.0,100,0.00,,,0.04,TxWx,2013-06-03 05:17:00,
2013-06-03 01:22:00,66.0,66.0,29.77,WSW,247,0.0,0.0,100,0.00,,,0.04,TxWx,2013-06-03 05:22:00,
2013-06-03 01:27:00,67.0,67.0,29.78,WSW,247,0.0,0.0,100,0.00,,,0.04,TxWx,2013-06-03 05:27:00,
2013-06-03 01:32:00,67.0,67.0,29.78,WSW,247,0.0,0.0,100,0.00,,,0.04,TxWx,2013-06-03 05:32:00,
2013-06-03 01:37:00,66.0,66.0,29.78,WSW,247,0.0,0.0,100,0.00,,,0.04,TxWx,2013-06-03 05:37:00,
2013-06-03 01:41:00,57.0,52.0,29.84,WSW,247,0.0,0.0,83,0.00,,,0.05,TxWx,2013-06-03 05:41:00,
2013-06-03 01:42:00,57.0,52.0,29.84,WSW,247,0.0,0.0,83,0.00,,,0.05,TxWx,2013-06-03 05:42:00,
2013-06-03 01:43:00,67.0,67.0,29.78,WSW,247,0.0,0.0,100,0.00,,,0.04,TxWx,2013-06-03 05:43:00,
2013-06-03 01:44:00,57.0,52.0,29.84,WSW,247,0.0,0.0,82,0.00,,,0.05,TxWx,2013-06-03 05:44:00,
2013-06-03 01:45:00,57.0,52.0,29.84,WSW,247,0.0,0.0,82,0.00,,,0.05,TxWx,2013-06-03 05:45:00,
2013-06-03 01:48:00,66.0,66.0,29.78,WSW,247,0.0,0.0,100,0.00,,,0.04,TxWx,2013-06-03 05:48:00,
2013-06-03 01:53:00,67.0,67.0,29.78,WSW,247,0.0,0.0,100,0.00,,,0.04,TxWx,2013-06-03 05:53:00,
2013-06-03 01:58:00,67.0,67.0,29.78,WSW,247,0.0,0.0,99,0.00,,,0.04,TxWx,2013-06-03 05:58:00,
2013-06-03 02:03:00,66.0,66.0,29.78,WSW,247,0.0,0.0,99,0.00,,,0.04,TxWx,2013-06-03 06:03:00,
2013-06-03 02:10:00,66.0,65.0,29.78,WSW,247,0.0,0.0,97,0.00,,,0.04,TxWx,2013-06-03 06:10:00,
2013-06-03 02:15:00,67.0,65.0,29.78,WSW,247,0.0,0.0,94,0.00,,,0.04,TxWx,2013-06-03 06:15:00,
2013-06-03 02:20:00,67.0,64.0,29.78,WSW,247,0.0,0.0,91,0.00,,,0.04,TxWx,2013-06-03 06:20:00,
2013-06-03 02:25:00,67.0,64.0,29.78,WSW,247,0.0,0.0,90,0.00,,,0.04,TxWx,2013-06-03 06:25:00,
2013-06-03 02:30:00,67.0,64.0,29.78,WSW,247,0.0,0.0,89,0.00,,,0.04,TxWx,2013-06-03 06:30:00,
2013-06-03 02:36:00,67.0,63.0,29.78,WSW,247,0.0,0.0,88,0.00,,,0.04,TxWx,2013-06-03 06:36:00,
2013-06-03 02:41:00,67.0,63.0,29.78,WSW,247,0.0,0.0,88,0.00,,,0.04,TxWx,2013-06-03 06:41:00,
2013-06-03 02:46:00,67.0,64.0,29.77,WSW,247,0.0,0.0,89,0.00,,,0.04,TxWx,2013-06-03 06:46:00,
2013-06-03 02:51:00,67.0,64.0,29.77,WSW,247,0.0,0.0,89,0.00,,,0.04,TxWx,2013-06-03 06:51:00,
2013-06-03 02:56:00,67.0,64.0,29.77,WSW,247,0.0,0.0,90,0.00,,,0.04,TxWx,2013-06-03 06:56:00,
2013-06-03 03:01:00,66.0,63.0,29.76,WSW,247,0.0,0.0,91,0.00,,,0.04,TxWx,2013-06-03 07:01:00,
2013-06-03 03:06:00,66.0,63.0,29.76,WSW,247,0.0,0.0,92,0.00,,,0.04,TxWx,2013-06-03 07:06:00,
2013-06-03 03:11:00,66.0,64.0,29.76,WSW,247,0.0,0.0,92,0.00,,,0.04,TxWx,2013-06-03 07:11:00,
2013-06-03 03:16:00,66.0,64.0,29.76,WSW,247,0.0,0.0,93,0.00,,,0.04,TxWx,2013-06-03 07:16:00,
2013-06-03 03:21:00,66.0,64.0,29.76,WSW,247,0.0,0.0,94,0.00,,,0.04,TxWx,2013-06-03 07:21:00,
2013-06-03 03:26:00,66.0,64.0,29.76,WSW,247,0.0,0.0,93,0.00,,,0.04,TxWx,2013-06-03 07:26:00,
2013-06-03 03:31:00,65.0,63.0,29.76,WSW,247,0.0,0.0,94,0.00,,,0.04,TxWx,2013-06-03 07:31:00,
2013-06-03 03:36:00,65.0,63.0,29.76,WSW,247,0.0,0.0,94,0.00,,,0.04,TxWx,2013-06-03 07:36:00,
2013-06-03 03:41:00,65.0,64.0,29.76,WSW,247,0.0,0.0,95,0.00,,,0.04,TxWx,2013-06-03 07:41:00,
2013-06-03 03:46:00,65.0,64.0,29.77,WSW,247,0.0,0.0,96,0.00,,,0.04,TxWx,2013-06-03 07:46:00,
2013-06-03 03:51:00,65.0,64.0,29.77,WSW,247,0.0,0.0,97,0.00,,,0.04,TxWx,2013-06-03 07:51:00,
2013-06-03 03:57:00,65.0,64.0,29.77,WSW,247,0.0,0.0,98,0.00,,,0.04,TxWx,2013-06-03 07:57:00,
2013-06-03 04:02:00,65.0,64.0,29.77,WSW,247,0.0,0.0,98,0.00,,,0.04,TxWx,2013-06-03 08:02:00,
2013-06-03 04:07:00,65.0,65.0,29.77,WSW,247,0.0,0.0,99,0.00,,,0.04,TxWx,2013-06-03 08:07:00,
2013-06-03 04:12:00,64.0,64.0,29.77,WSW,247,0.0,0.0,99,0.00,,,0.04,TxWx,2013-06-03 08:12:00,
2013-06-03 04:17:00,64.0,64.0,29.77,WSW,247,0.0,0.0,99,0.00,,,0.04,TxWx,2013-06-03 08:17:00,
2013-06-03 04:22:00,64.0,64.0,29.77,WSW,247,0.0,0.0,99,0.00,,,0.04,TxWx,2013-06-03 08:22:00,
2013-06-03 04:27:00,64.0,64.0,29.77,WSW,247,0.0,0.0,99,0.00,,,0.04,TxWx,2013-06-03 08:27:00,
2013-06-03 04:32:00,64.0,63.0,29.77,WSW,247,0.0,0.0,98,0.00,,,0.04,TxWx,2013-06-03 08:32:00,
2013-06-03 04:37:00,63.0,62.0,29.77,WSW,247,0.0,0.0,98,0.00,,,0.04,TxWx,2013-06-03 08:37:00,
2013-06-03 04:42:00,63.0,62.0,29.77,WSW,247,0.0,0.0,97,0.00,,,0.04,TxWx,2013-06-03 08:42:00,
2013-06-03 04:47:00,63.0,62.0,29.77,WSW,247,0.0,0.0,96,0.00,,,0.04,TxWx,2013-06-03 08:47:00,
2013-06-03 04:52:00,63.0,62.0,29.77,WSW,247,0.0,0.0,96,0.00,,,0.04,TxWx,2013-06-03 08:52:00,
2013-06-03 04:57:00,63.0,62.0,29.77,WSW,247,0.0,0.0,96,0.00,,,0.04,TxWx,2013-06-03 08:57:00,
2013-06-03 05:02:00,63.0,61.0,29.77,WSW,247,0.0,0.0,95,0.00,,,0.04,TxWx,2013-06-03 09:02:00,
2013-06-03 05:08:00,63.0,61.0,29.77,WSW,247,0.0,0.0,95,0.00,,,0.04,TxWx,2013-06-03 09:08:00,
2013-06-03 05:13:00,62.0,60.0,29.77,WSW,247,0.0,0.0,95,0.00,,,0.04,TxWx,2013-06-03 09:13:00,
2013-06-03 05:18:00,62.0,60.0,29.77,WSW,247,0.0,0.0,95,0.00,,,0.04,TxWx,2013-06-03 09:18:00,
2013-06-03 05:23:00,62.0,60.0,29.77,WSW,247,0.0,0.0,95,0.00,,,0.04,TxWx,2013-06-03 09:23:00,
2013-06-03 05:28:00,62.0,60.0,29.78,WSW,247,0.0,0.0,95,0.00,,,0.04,TxWx,2013-06-03 09:28:00,
2013-06-03 05:33:00,62.0,60.0,29.78,WSW,247,0.0,0.0,95,0.00,,,0.04,TxWx,2013-06-03 09:33:00,
2013-06-03 05:38:00,62.0,60.0,29.78,WSW,247,0.0,0.0,95,0.00,,,0.04,TxWx,2013-06-03 09:38:00,
2013-06-03 05:43:00,61.0,59.0,29.78,WSW,247,0.0,0.0,95,0.00,,,0.04,TxWx,2013-06-03 09:43:00,
2013-06-03 05:48:00,61.0,60.0,29.78,WSW,247,0.0,0.0,95,0.00,,,0.04,TxWx,2013-06-03 09:48:00,
2013-06-03 05:53:00,61.0,60.0,29.78,WSW,247,0.0,0.0,96,0.00,,,0.04,TxWx,2013-06-03 09:53:00,
2013-06-03 05:58:00,61.0,60.0,29.78,WSW,247,0.0,0.0,96,0.00,,,0.04,TxWx,2013-06-03 09:58:00,
2013-06-03 06:03:00,61.0,60.0,29.78,WSW,247,0.0,0.0,96,0.00,,,0.04,TxWx,2013-06-03 10:03:00,
2013-06-03 06:08:00,60.0,59.0,29.78,WSW,247,0.0,0.0,97,0.00,,,0.04,TxWx,2013-06-03 10:08:00,
2013-06-03 06:13:00,60.0,59.0,29.78,WSW,247,0.0,0.0,97,0.00,,,0.04,TxWx,2013-06-03 10:13:00,
2013-06-03 06:19:00,60.0,59.0,29.78,WSW,247,0.0,0.0,97,0.00,,,0.04,TxWx,2013-06-03 10:19:00,
2013-06-03 06:24:00,60.0,59.0,29.77,WSW,247,0.0,0.0,97,0.00,,,0.04,TxWx,2013-06-03 10:24:00,
2013-06-03 06:29:00,60.0,59.0,29.78,WSW,247,0.0,0.0,97,0.00,,,0.04,TxWx,2013-06-03 10:29:00,
2013-06-03 06:34:00,60.0,59.0,29.78,WSW,247,0.0,0.0,98,0.00,,,0.04,TxWx,2013-06-03 10:34:00,
2013-06-03 06:39:00,60.0,59.0,29.78,WSW,247,0.0,0.0,98,0.00,,,0.04,TxWx,2013-06-03 10:39:00,
2013-06-03 06:44:00,60.0,59.0,29.78,WSW,247,0.0,0.0,98,0.00,,,0.04,TxWx,2013-06-03 10:44:00,
2013-06-03 06:49:00,60.0,59.0,29.78,WSW,247,0.0,0.0,98,0.00,,,0.04,TxWx,2013-06-03 10:49:00,
2013-06-03 06:54:00,59.0,58.0,29.79,WSW,247,0.0,0.0,98,0.00,,,0.04,TxWx,2013-06-03 10:54:00,
2013-06-03 06:59:00,59.0,59.0,29.79,WSW,247,0.0,0.0,99,0.00,,,0.04,TxWx,2013-06-03 10:59:00,
2013-06-03 07:04:00,59.0,59.0,29.79,WSW,247,0.0,0.0,99,0.00,,,0.04,TxWx,2013-06-03 11:04:00,
2013-06-03 07:09:00,59.0,59.0,29.79,WSW,247,0.0,0.0,99,0.00,,,0.04,TxWx,2013-06-03 11:09:00,
2013-06-03 07:14:00,59.0,59.0,29.79,WSW,247,0.0,0.0,99,0.00,,,0.04,TxWx,2013-06-03 11:14:00,
2013-06-03 07:19:00,59.0,59.0,29.80,WSW,247,0.0,0.0,99,0.00,,,0.04,TxWx,2013-06-03 11:19:00,
2013-06-03 07:24:00,59.0,59.0,29.80,WSW,247,0.0,0.0,99,0.00,,,0.04,TxWx,2013-06-03 11:24:00,
2013-06-03 07:30:00,59.0,58.0,29.80,WSW,247,0.0,0.0,98,0.00,,,0.04,TxWx,2013-06-03 11:30:00,
2013-06-03 07:35:00,59.0,58.0,29.80,WSW,247,0.0,0.0,98,0.00,,,0.04,TxWx,2013-06-03 11:35:00,
2013-06-03 07:40:00,59.0,58.0,29.81,WSW,247,0.0,0.0,96,0.00,,,0.04,TxWx,2013-06-03 11:40:00,
2013-06-03 07:45:00,58.0,57.0,29.80,WSW,247,0.0,0.0,96,0.00,,,0.04,TxWx,2013-06-03 11:45:00,
2013-06-03 07:50:00,58.0,57.0,29.80,WSW,247,0.0,0.0,96,0.00,,,0.04,TxWx,2013-06-03 11:50:00,
2013-06-03 07:55:00,58.0,57.0,29.80,WSW,247,0.0,0.0,96,0.00,,,0.04,TxWx,2013-06-03 11:55:00,
2013-06-03 08:00:00,58.0,56.0,29.80,WSW,247,0.0,0.0,94,0.00,,,0.04,TxWx,2013-06-03 12:00:00,
2013-06-03 08:05:00,58.0,56.0,29.80,WSW,247,0.0,0.0,94,0.00,,,0.04,TxWx,2013-06-03 12:05:00,
2013-06-03 08:10:00,58.0,56.0,29.80,WSW,247,0.0,0.0,94,0.00,,,0.04,TxWx,2013-06-03 12:10:00,
2013-06-03 08:15:00,59.0,57.0,29.80,WSW,247,0.0,0.0,94,0.00,,,0.04,TxWx,2013-06-03 12:15:00,
2013-06-03 08:20:00,59.0,57.0,29.80,WSW,247,0.0,0.0,93,0.00,,,0.04,TxWx,2013-06-03 12:20:00,
2013-06-03 08:25:00,59.0,57.0,29.81,WSW,247,0.0,0.0,93,0.00,,,0.04,TxWx,2013-06-03 12:25:00,
2013-06-03 08:30:00,58.0,56.0,29.81,WSW,247,0.0,0.0,93,0.00,,,0.04,TxWx,2013-06-03 12:30:00,
2013-06-03 08:36:00,58.0,56.0,29.81,WSW,247,0.0,0.0,93,0.00,,,0.04,TxWx,2013-06-03 12:36:00,
2013-06-03 08:41:00,57.0,55.0,29.81,WSW,247,0.0,0.0,92,0.00,,,0.04,TxWx,2013-06-03 12:41:00,
2013-06-03 08:46:00,57.0,55.0,29.82,WSW,247,0.0,0.0,92,0.00,,,0.04,TxWx,2013-06-03 12:46:00,
2013-06-03 08:51:00,56.0,55.0,29.81,WSW,247,0.0,0.0,92,0.00,,,0.04,TxWx,2013-06-03 12:51:00,
2013-06-03 08:56:00,56.0,53.0,29.82,WSW,247,0.0,0.0,91,0.00,,,0.05,TxWx,2013-06-03 12:56:00,
2013-06-03 09:01:00,57.0,54.0,29.82,WSW,247,0.0,0.0,91,0.60,,,0.05,TxWx,2013-06-03 13:01:00,
2013-06-03 09:07:00,57.0,54.0,29.82,WSW,247,0.0,0.0,90,0.60,,,0.05,TxWx,2013-06-03 13:07:00,
2013-06-03 09:12:00,57.0,54.0,29.82,WSW,247,0.0,0.0,89,0.00,,,0.05,TxWx,2013-06-03 13:12:00,
2013-06-03 09:17:00,56.0,53.0,29.83,WSW,247,0.0,0.0,89,0.00,,,0.05,TxWx,2013-06-03 13:17:00,
2013-06-03 09:25:00,56.0,52.0,29.83,WSW,247,0.0,0.0,87,0.00,,,0.05,TxWx,2013-06-03 13:25:00,
2013-06-03 09:30:00,56.0,52.0,29.83,WSW,247,0.0,0.0,87,0.00,,,0.05,TxWx,2013-06-03 13:30:00,
2013-06-03 09:36:00,56.0,52.0,29.83,WSW,247,0.0,0.0,87,0.00,,,0.05,TxWx,2013-06-03 13:36:00,
2013-06-03 09:41:00,56.0,52.0,29.83,WSW,247,0.0,0.0,87,0.00,,,0.05,TxWx,2013-06-03 13:41:00,
2013-06-03 09:46:00,56.0,52.0,29.83,WSW,247,0.0,0.0,88,0.00,,,0.05,TxWx,2013-06-03 13:46:00,
2013-06-03 09:51:00,56.0,52.0,29.84,WSW,247,0.0,0.0,87,0.00,,,0.05,TxWx,2013-06-03 13:51:00,
2013-06-03 09:56:00,56.0,52.0,29.84,WSW,247,0.0,0.0,86,0.00,,,0.05,TxWx,2013-06-03 13:56:00,
2013-06-03 10:01:00,56.0,52.0,29.84,WSW,247,0.0,0.0,86,0.00,,,0.05,TxWx,2013-06-03 14:01:00,
2013-06-03 10:06:00,57.0,53.0,29.84,WSW,247,0.0,0.0,86,0.00,,,0.05,TxWx,2013-06-03 14:06:00,
2013-06-03 10:11:00,57.0,52.0,29.84,WSW,247,0.0,0.0,85,0.00,,,0.05,TxWx,2013-06-03 14:11:00,
2013-06-03 10:16:00,57.0,52.0,29.84,WSW,247,0.0,0.0,84,0.00,,,0.05,TxWx,2013-06-03 14:16:00,
2013-06-03 10:21:00,57.0,52.0,29.84,WSW,247,0.0,0.0,84,0.00,,,0.05,TxWx,2013-06-03 14:21:00,
2013-06-03 10:26:00,57.0,52.0,29.84,WSW,247,0.0,0.0,83,0.00,,,0.05,TxWx,2013-06-03 14:26:00,
2013-06-03 10:31:00,57.0,52.0,29.84,WSW,247,0.0,0.0,83,0.00,,,0.05,TxWx,2013-06-03 14:31:00,
2013-06-03 10:36:00,57.0,52.0,29.84,WSW,247,0.0,0.0,83,0.00,,,0.05,TxWx,2013-06-03 14:36:00,
2013-06-03 10:37:00,58.0,41.0,29.82,WSW,247,0.0,0.0,53,0.00,,,0.05,TxWx,2013-06-03 14:37:00,
2013-06-03 10:38:00,58.0,41.0,29.82,WSW,247,0.0,0.0,53,0.00,,,0.05,TxWx,2013-06-03 14:38:00,
2013-06-03 10:39:00,58.0,41.0,29.82,WSW,247,0.0,0.0,53,0.00,,,0.05,TxWx,2013-06-03 14:39:00,
2013-06-03 10:40:00,58.0,41.0,29.82,WSW,247,0.0,0.0,53,0.00,,,0.05,TxWx,2013-06-03 14:40:00,
2013-06-03 10:45:00,57.0,52.0,29.84,WSW,247,0.0,0.0,82,0.00,,,0.05,TxWx,2013-06-03 14:45:00,
2013-06-03 10:50:00,58.0,52.0,29.84,WSW,247,0.0,0.0,82,0.00,,,0.05,TxWx,2013-06-03 14:50:00,
2013-06-03 10:55:00,58.0,52.0,29.84,WSW,247,0.0,0.0,81,0.00,,,0.05,TxWx,2013-06-03 14:55:00,
2013-06-03 11:00:00,58.0,52.0,29.84,WSW,247,0.0,0.0,81,0.00,,,0.05,TxWx,2013-06-03 15:00:00,
2013-06-03 11:05:00,58.0,52.0,29.84,WSW,247,0.0,0.0,81,0.00,,,0.05,TxWx,2013-06-03 15:05:00,
2013-06-03 11:10:00,58.0,52.0,29.83,WSW,247,0.0,0.0,80,0.00,,,0.05,TxWx,2013-06-03 15:10:00,
2013-06-03 11:11:00,57.0,37.0,29.82,WSW,247,0.0,0.0,47,0.00,,,0.05,TxWx,2013-06-03 15:11:00,
2013-06-03 11:16:00,58.0,53.0,29.83,WSW,247,0.0,0.0,81,0.00,,,0.05,TxWx,2013-06-03 15:16:00,
2013-06-03 11:21:00,59.0,53.0,29.84,WSW,247,0.0,0.0,80,0.00,,,0.05,TxWx,2013-06-03 15:21:00,
2013-06-03 11:26:00,58.0,52.0,29.84,WSW,247,0.0,0.0,80,0.00,,,0.05,TxWx,2013-06-03 15:26:00,
2013-06-03 11:31:00,58.0,52.0,29.84,WSW,247,0.0,0.0,80,0.00,,,0.05,TxWx,2013-06-03 15:31:00,
2013-06-03 11:36:00,59.0,52.0,29.83,WSW,247,0.0,0.0,79,0.00,,,0.05,TxWx,2013-06-03 15:36:00,
2013-06-03 11:41:00,59.0,52.0,29.83,WSW,247,0.0,0.0,79,0.00,,,0.05,TxWx,2013-06-03 15:41:00,
2013-06-03 11:46:00,59.0,52.0,29.83,WSW,247,0.0,0.0,79,0.00,,,0.05,TxWx,2013-06-03 15:46:00,
2013-06-03 11:51:00,59.0,52.0,29.83,WSW,247,0.0,0.0,79,0.00,,,0.05,TxWx,2013-06-03 15:51:00,
2013-06-03 11:56:00,59.0,52.0,29.83,WSW,247,0.0,0.0,79,0.00,,,0.05,TxWx,2013-06-03 15:56:00,
2013-06-03 12:01:00,59.0,52.0,29.83,WSW,247,0.0,0.0,77,0.00,,,0.05,TxWx,2013-06-03 16:01:00,
2013-06-03 12:06:00,61.0,54.0,29.83,WSW,247,0.0,0.0,78,0.00,,,0.05,TxWx,2013-06-03 16:06:00,
2013-06-03 12:11:00,61.0,53.0,29.83,WSW,247,0.0,0.0,76,0.00,,,0.05,TxWx,2013-06-03 16:11:00,
2013-06-03 12:16:00,60.0,52.0,29.83,WSW,247,0.0,0.0,74,0.00,,,0.05,TxWx,2013-06-03 16:16:00,
2013-06-03 12:22:00,60.0,52.0,29.83,WSW,247,0.0,0.0,75,0.00,,,0.05,TxWx,2013-06-03 16:22:00,
2013-06-03 12:27:00,60.0,51.0,29.83,WSW,247,0.0,0.0,74,0.00,,,0.05,TxWx,2013-06-03 16:27:00,
2013-06-03 12:32:00,60.0,52.0,29.83,WSW,247,0.0,0.0,75,0.00,,,0.05,TxWx,2013-06-03 16:32:00,
2013-06-03 12:37:00,60.0,52.0,29.83,WSW,247,0.0,0.0,75,0.00,,,0.05,TxWx,2013-06-03 16:37:00,
2013-06-03 12:42:00,60.0,52.0,29.83,WSW,247,0.0,0.0,74,0.00,,,0.05,TxWx,2013-06-03 16:42:00,
2013-06-03 12:47:00,60.0,52.0,29.83,WSW,247,0.0,0.0,74,0.00,,,0.05,TxWx,2013-06-03 16:47:00,
2013-06-03 12:52:00,60.0,52.0,29.82,WSW,247,0.0,0.0,75,0.00,,,0.05,TxWx,2013-06-03 16:52:00,
2013-06-03 12:56:00,54.0,38.0,29.84,WSW,247,0.0,0.0,56,0.00,,,0.05,TxWx,2013-06-03 16:56:00,
2013-06-03 12:57:00,61.0,53.0,29.83,WSW,247,0.0,0.0,74,0.00,,,0.05,TxWx,2013-06-03 16:57:00,
2013-06-03 12:58:00,54.0,38.0,29.85,WSW,247,0.0,0.0,56,0.00,,,0.05,TxWx,2013-06-03 16:58:00,
2013-06-03 12:59:00,54.0,38.0,29.85,WSW,247,0.0,0.0,55,0.00,,,0.05,TxWx,2013-06-03 16:59:00,
2013-06-03 13:00:00,54.0,38.0,29.85,WSW,247,0.0,0.0,56,0.00,,,0.05,TxWx,2013-06-03 17:00:00,
2013-06-03 13:02:00,60.0,52.0,29.83,WSW,247,0.0,0.0,74,0.00,,,0.05,TxWx,2013-06-03 17:02:00,
2013-06-03 13:06:00,54.0,39.0,29.85,WSW,247,0.0,0.0,56,0.00,,,0.05,TxWx,2013-06-03 17:06:00,
2013-06-03 13:07:00,60.0,52.0,29.82,WSW,247,0.0,0.0,75,0.00,,,0.05,TxWx,2013-06-03 17:07:00,
2013-06-03 13:08:00,53.0,38.0,29.85,WSW,247,0.0,0.0,56,0.00,,,0.05,TxWx,2013-06-03 17:08:00,
2013-06-03 13:12:00,60.0,52.0,29.83,WSW,247,0.0,0.0,75,0.00,,,0.05,TxWx,2013-06-03 17:12:00,
2013-06-03 13:17:00,62.0,53.0,29.83,WSW,247,0.0,0.0,74,0.00,,,0.05,TxWx,2013-06-03 17:17:00,
2013-06-03 13:22:00,62.0,54.0,29.83,WSW,247,0.0,0.0,75,0.00,,,0.05,TxWx,2013-06-03 17:22:00,
2013-06-03 13:28:00,61.0,52.0,29.83,WSW,247,0.0,0.0,72,0.00,,,0.05,TxWx,2013-06-03 17:28:00,
2013-06-03 13:33:00,60.0,52.0,29.83,WSW,247,0.0,0.0,72,0.00,,,0.05,TxWx,2013-06-03 17:33:00,
2013-06-03 13:38:00,60.0,52.0,29.82,WSW,247,0.0,0.0,74,0.00,,,0.05,TxWx,2013-06-03 17:38:00,
2013-06-03 13:43:00,60.0,51.0,29.82,WSW,247,0.0,0.0,73,0.00,,,0.05,TxWx,2013-06-03 17:43:00,
2013-06-03 13:48:00,60.0,51.0,29.82,WSW,247,0.0,0.0,73,0.00,,,0.05,TxWx,2013-06-03 17:48:00,
2013-06-03 13:53:00,60.0,52.0,29.82,WSW,247,0.0,0.0,74,0.00,,,0.05,TxWx,2013-06-03 17:53:00,
2013-06-03 13:58:00,60.0,52.0,29.82,WSW,247,0.0,0.0,74,0.00,,,0.05,TxWx,2013-06-03 17:58:00,
2013-06-03 14:03:00,60.0,51.0,29.82,WSW,247,0.0,0.0,72,0.00,,,0.05,TxWx,2013-06-03 18:03:00,
2013-06-03 14:08:00,60.0,51.0,29.82,WSW,247,0.0,0.0,72,0.00,,,0.05,TxWx,2013-06-03 18:08:00,
2013-06-03 14:13:00,59.0,50.0,29.82,WSW,247,0.0,0.0,73,0.00,,,0.05,TxWx,2013-06-03 18:13:00,
2013-06-03 14:18:00,61.0,53.0,29.82,WSW,247,0.0,0.0,75,0.00,,,0.05,TxWx,2013-06-03 18:18:00,
2013-06-03 14:23:00,60.0,51.0,29.81,WSW,247,0.0,0.0,73,0.00,,,0.05,TxWx,2013-06-03 18:23:00,
2013-06-03 14:28:00,60.0,51.0,29.81,WSW,247,0.0,0.0,72,0.00,,,0.05,TxWx,2013-06-03 18:28:00,
2013-06-03 14:33:00,60.0,51.0,29.81,WSW,247,0.0,0.0,73,0.00,,,0.05,TxWx,2013-06-03 18:33:00,
2013-06-03 14:39:00,61.0,52.0,29.81,WSW,247,0.0,0.0,72,0.00,,,0.05,TxWx,2013-06-03 18:39:00,
2013-06-03 14:44:00,60.0,50.0,29.82,WSW,247,0.0,0.0,70,0.00,,,0.05,TxWx,2013-06-03 18:44:00,
2013-06-03 14:49:00,60.0,50.0,29.82,WSW,247,0.0,0.0,70,0.00,,,0.05,TxWx,2013-06-03 18:49:00,
2013-06-03 14:54:00,59.0,49.0,29.81,WSW,247,0.0,0.0,70,0.00,,,0.05,TxWx,2013-06-03 18:54:00,
2013-06-03 14:59:00,59.0,51.0,29.82,WSW,247,0.0,0.0,71,0.00,,,0.05,TxWx,2013-06-03 18:59:00,
2013-06-03 15:00:00,50.0,40.0,29.86,WSW,247,0.0,0.0,69,0.00,,,0.00,TxWx,2013-06-03 19:00:00,
2013-06-03 15:01:00,50.0,40.0,29.86,WSW,247,0.0,0.0,69,0.00,,,0.00,TxWx,2013-06-03 19:01:00,
2013-06-03 15:02:00,50.0,40.0,29.86,WSW,247,0.0,0.0,69,0.00,,,0.00,TxWx,2013-06-03 19:02:00,
2013-06-03 15:03:00,50.0,40.0,29.86,WSW,247,0.0,0.0,68,0.00,,,0.00,TxWx,2013-06-03 19:03:00,
2013-06-03 15:04:00,60.0,51.0,29.82,WSW,247,0.0,0.0,71,0.00,,,0.05,TxWx,2013-06-03 19:04:00,
2013-06-03 15:05:00,50.0,40.0,29.86,WSW,247,0.0,0.0,68,0.00,,,0.00,TxWx,2013-06-03 19:05:00,
2013-06-03 15:06:00,50.0,40.0,29.86,WSW,247,0.0,0.0,68,0.00,,,0.00,TxWx,2013-06-03 19:06:00,
2013-06-03 15:07:00,50.0,40.0,29.86,WSW,247,0.0,0.0,68,0.00,,,0.00,TxWx,2013-06-03 19:07:00,
2013-06-03 15:08:00,50.0,39.0,29.86,WSW,247,0.0,0.0,67,0.00,,,0.00,TxWx,2013-06-03 19:08:00,
2013-06-03 15:09:00,61.0,52.0,29.82,WSW,247,0.0,0.0,72,0.00,,,0.05,TxWx,2013-06-03 19:09:00,
2013-06-03 15:14:00,61.0,52.0,29.82,WSW,247,0.0,0.0,71,0.00,,,0.05,TxWx,2013-06-03 19:14:00,
2013-06-03 15:19:00,61.0,51.0,29.82,WSW,247,0.0,0.0,70,0.00,,,0.05,TxWx,2013-06-03 19:19:00,
2013-06-03 15:24:00,60.0,50.0,29.82,WSW,247,0.0,0.0,69,0.00,,,0.05,TxWx,2013-06-03 19:24:00,
2013-06-03 15:28:00,50.0,39.0,29.86,WSW,247,0.0,0.0,66,0.00,,,0.00,TxWx,2013-06-03 19:28:00,
2013-06-03 15:29:00,60.0,50.0,29.82,WSW,247,0.0,0.0,69,0.00,,,0.05,TxWx,2013-06-03 19:29:00,
2013-06-03 15:30:00,50.0,39.0,29.86,WSW,247,0.0,0.0,66,0.00,,,0.00,TxWx,2013-06-03 19:30:00,
2013-06-03 15:31:00,49.0,38.0,29.86,WSW,247,0.0,0.0,67,0.00,,,0.00,TxWx,2013-06-03 19:31:00,
2013-06-03 15:34:00,59.0,49.0,29.82,WSW,247,0.0,0.0,69,0.00,,,0.05,TxWx,2013-06-03 19:34:00,
2013-06-03 15:39:00,59.0,49.0,29.81,WSW,247,0.0,0.0,71,0.00,,,0.05,TxWx,2013-06-03 19:39:00,
2013-06-03 15:45:00,60.0,51.0,29.81,WSW,247,0.0,0.0,72,0.00,,,0.05,TxWx,2013-06-03 19:45:00,
2013-06-03 15:50:00,60.0,50.0,29.81,WSW,247,0.0,0.0,69,0.00,,,0.05,TxWx,2013-06-03 19:50:00,
2013-06-03 15:55:00,61.0,51.0,29.81,WSW,247,0.0,0.0,70,0.00,,,0.05,TxWx,2013-06-03 19:55:00,
2013-06-03 16:00:00,61.0,51.0,29.81,WSW,247,0.0,0.0,69,0.00,,,0.05,TxWx,2013-06-03 20:00:00,
2013-06-03 16:05:00,60.0,50.0,29.81,WSW,247,0.0,0.0,69,0.00,,,0.05,TxWx,2013-06-03 20:05:00,
2013-06-03 16:10:00,60.0,49.0,29.81,WSW,247,0.0,0.0,68,0.00,,,0.05,TxWx,2013-06-03 20:10:00,
2013-06-03 16:15:00,61.0,51.0,29.81,WSW,247,0.0,0.0,70,0.00,,,0.05,TxWx,2013-06-03 20:15:00,
2013-06-03 16:20:00,61.0,50.0,29.81,WSW,247,0.0,0.0,68,0.00,,,0.05,TxWx,2013-06-03 20:20:00,
2013-06-03 16:25:00,60.0,49.0,29.81,WSW,247,0.0,0.0,67,0.00,,,0.05,TxWx,2013-06-03 20:25:00,
2013-06-03 16:30:00,60.0,49.0,29.81,WSW,247,0.0,0.0,68,0.00,,,0.05,TxWx,2013-06-03 20:30:00,
2013-06-03 16:35:00,60.0,49.0,29.81,WSW,247,0.0,0.0,68,0.00,,,0.05,TxWx,2013-06-03 20:35:00,
2013-06-03 16:40:00,60.0,49.0,29.81,WSW,247,0.0,0.0,67,0.00,,,0.05,TxWx,2013-06-03 20:40:00,
2013-06-03 16:41:00,48.0,39.0,29.87,WSW,247,0.0,0.0,72,0.00,,,0.00,TxWx,2013-06-03 20:41:00,
2013-06-03 16:46:00,60.0,49.0,29.81,WSW,247,0.0,0.0,67,0.00,,,0.05,TxWx,2013-06-03 20:46:00,
2013-06-03 16:51:00,60.0,50.0,29.81,WSW,247,0.0,0.0,67,0.00,,,0.05,TxWx,2013-06-03 20:51:00,
2013-06-03 16:56:00,61.0,50.0,29.81,WSW,247,0.0,0.0,67,0.00,,,0.05,TxWx,2013-06-03 20:56:00,
2013-06-03 17:01:00,60.0,49.0,29.81,WSW,247,0.0,0.0,66,0.00,,,0.05,TxWx,2013-06-03 21:01:00,
2013-06-03 17:06:00,61.0,50.0,29.81,WSW,247,0.0,0.0,67,0.00,,,0.05,TxWx,2013-06-03 21:06:00,
2013-06-03 17:07:00,49.0,40.0,29.87,WSW,247,0.0,0.0,70,0.00,,,0.00,TxWx,2013-06-03 21:07:00,
2013-06-03 17:08:00,49.0,40.0,29.87,WSW,247,0.0,0.0,70,0.00,,,0.00,TxWx,2013-06-03 21:08:00,
2013-06-03 17:09:00,49.0,40.0,29.87,WSW,247,0.0,0.0,70,0.00,,,0.00,TxWx,2013-06-03 21:09:00,
2013-06-03 17:11:00,60.0,48.0,29.81,WSW,247,0.0,0.0,66,0.00,,,0.05,TxWx,2013-06-03 21:11:00,
2013-06-03 17:13:00,49.0,40.0,29.87,WSW,247,0.0,0.0,70,0.00,,,0.00,TxWx,2013-06-03 21:13:00,
2013-06-03 17:15:00,48.0,39.0,29.87,WSW,247,0.0,0.0,70,0.00,,,0.00,TxWx,2013-06-03 21:15:00,
2013-06-03 17:16:00,60.0,49.0,29.81,WSW,247,0.0,0.0,65,0.00,,,0.05,TxWx,2013-06-03 21:16:00,
2013-06-03 17:17:00,48.0,39.0,29.87,WSW,247,0.0,0.0,70,0.00,,,0.00,TxWx,2013-06-03 21:17:00,
2013-06-03 17:18:00,48.0,39.0,29.87,WSW,247,0.0,0.0,70,0.00,,,0.00,TxWx,2013-06-03 21:18:00,
2013-06-03 17:21:00,61.0,49.0,29.81,WSW,247,0.0,0.0,65,0.00,,,0.05,TxWx,2013-06-03 21:21:00,
2013-06-03 17:22:00,48.0,39.0,29.87,WSW,247,0.0,0.0,71,0.00,,,0.00,TxWx,2013-06-03 21:22:00,
2013-06-03 17:23:00,48.0,39.0,29.87,WSW,247,0.0,0.0,71,0.00,,,0.00,TxWx,2013-06-03 21:23:00,
2013-06-03 17:24:00,48.0,39.0,29.86,WSW,247,0.0,0.0,71,0.00,,,0.00,TxWx,2013-06-03 21:24:00,
2013-06-03 17:25:00,48.0,39.0,29.86,WSW,247,0.0,0.0,71,0.00,,,0.00,TxWx,2013-06-03 21:25:00,
2013-06-03 17:26:00,60.0,47.0,29.81,WSW,247,0.0,0.0,63,0.00,,,0.05,TxWx,2013-06-03 21:26:00,
2013-06-03 17:27:00,48.0,39.0,29.87,WSW,247,0.0,0.0,72,0.00,,,0.00,TxWx,2013-06-03 21:27:00,
2013-06-03 17:28:00,48.0,39.0,29.87,WSW,247,0.0,0.0,72,0.00,,,0.00,TxWx,2013-06-03 21:28:00,
2013-06-03 17:29:00,48.0,39.0,29.86,WSW,247,0.0,0.0,72,0.00,,,0.00,TxWx,2013-06-03 21:29:00,
2013-06-03 17:31:00,61.0,48.0,29.80,WSW,247,0.0,0.0,63,0.00,,,0.05,TxWx,2013-06-03 21:31:00,
2013-06-03 17:32:00,48.0,39.0,29.86,WSW,247,0.0,0.0,72,0.00,,,0.00,TxWx,2013-06-03 21:32:00,
2013-06-03 17:33:00,48.0,39.0,29.86,WSW,247,0.0,0.0,72,0.00,,,0.00,TxWx,2013-06-03 21:33:00,
2013-06-03 17:36:00,61.0,47.0,29.81,WSW,247,0.0,0.0,61,0.00,,,0.05,TxWx,2013-06-03 21:36:00,
2013-06-03 17:41:00,61.0,46.0,29.81,WSW,247,0.0,0.0,60,0.00,,,0.05,TxWx,2013-06-03 21:41:00,
2013-06-03 17:47:00,60.0,45.0,29.81,WSW,247,0.0,0.0,58,0.00,,,0.05,TxWx,2013-06-03 21:47:00,
2013-06-03 17:52:00,60.0,45.0,29.81,WSW,247,0.0,0.0,58,0.00,,,0.05,TxWx,2013-06-03 21:52:00,
2013-06-03 17:55:00,48.0,39.0,29.86,WSW,247,0.0,0.0,71,0.00,,,0.00,TxWx,2013-06-03 21:55:00,
2013-06-03 17:57:00,60.0,45.0,29.81,WSW,247,0.0,0.0,58,0.00,,,0.05,TxWx,2013-06-03 21:57:00,
2013-06-03 18:01:00,48.0,39.0,29.86,WSW,247,0.0,0.0,72,0.00,,,0.00,TxWx,2013-06-03 22:01:00,
2013-06-03 18:02:00,61.0,45.0,29.81,WSW,247,0.0,0.0,56,0.00,,,0.05,TxWx,2013-06-03 22:02:00,
2013-06-03 18:03:00,48.0,39.0,29.86,WSW,247,0.0,0.0,72,0.00,,,0.00,TxWx,2013-06-03 22:03:00,
2013-06-03 18:04:00,48.0,39.0,29.86,WSW,247,0.0,0.0,72,0.00,,,0.00,TxWx,2013-06-03 22:04:00,
2013-06-03 18:07:00,61.0,45.0,29.81,WSW,247,0.0,0.0,56,0.00,,,0.05,TxWx,2013-06-03 22:07:00,
2013-06-03 18:13:00,61.0,45.0,29.81,WSW,247,0.0,0.0,57,0.00,,,0.05,TxWx,2013-06-03 22:13:00,
2013-06-03 18:18:00,60.0,43.0,29.81,WSW,247,0.0,0.0,54,0.00,,,0.05,TxWx,2013-06-03 22:18:00,
2013-06-03 18:23:00,60.0,44.0,29.81,WSW,247,0.0,0.0,55,0.00,,,0.05,TxWx,2013-06-03 22:23:00,
2013-06-03 18:28:00,60.0,44.0,29.81,WSW,247,0.0,0.0,57,0.00,,,0.05,TxWx,2013-06-03 22:28:00,
2013-06-03 18:33:00,61.0,46.0,29.81,WSW,247,0.0,0.0,57,0.00,,,0.05,TxWx,2013-06-03 22:33:00,
2013-06-03 18:38:00,61.0,46.0,29.81,WSW,247,0.0,0.0,57,0.00,,,0.05,TxWx,2013-06-03 22:38:00,
2013-06-03 18:43:00,61.0,45.0,29.81,WSW,247,0.0,0.0,57,0.00,,,0.05,TxWx,2013-06-03 22:43:00,
2013-06-03 18:48:00,60.0,44.0,29.81,WSW,247,0.0,0.0,57,0.00,,,0.05,TxWx,2013-06-03 22:48:00,
2013-06-03 18:53:00,60.0,44.0,29.81,WSW,247,0.0,0.0,56,0.00,,,0.05,TxWx,2013-06-03 22:53:00,
2013-06-03 18:58:00,59.0,44.0,29.81,WSW,247,0.0,0.0,57,0.00,,,0.05,TxWx,2013-06-03 22:58:00,
2013-06-03 19:03:00,59.0,44.0,29.81,WSW,247,0.0,0.0,57,0.00,,,0.05,TxWx,2013-06-03 23:03:00,
2013-06-03 19:08:00,59.0,43.0,29.81,WSW,247,0.0,0.0,56,0.00,,,0.05,TxWx,2013-06-03 23:08:00,
2013-06-03 19:13:00,59.0,42.0,29.81,WSW,247,0.0,0.0,54,0.00,,,0.05,TxWx,2013-06-03 23:13:00,
2013-06-03 19:18:00,59.0,42.0,29.82,WSW,247,0.0,0.0,54,0.00,,,0.05,TxWx,2013-06-03 23:18:00,
2013-06-03 19:24:00,59.0,43.0,29.82,WSW,247,0.0,0.0,55,0.00,,,0.05,TxWx,2013-06-03 23:24:00,
2013-06-03 19:29:00,58.0,40.0,29.81,WSW,247,0.0,0.0,52,0.00,,,0.05,TxWx,2013-06-03 23:29:00,
2013-06-03 19:34:00,59.0,41.0,29.82,WSW,247,0.0,0.0,52,0.00,,,0.05,TxWx,2013-06-03 23:34:00,
2013-06-03 19:40:00,58.0,41.0,29.81,WSW,247,0.0,0.0,53,0.00,,,0.05,TxWx,2013-06-03 23:40:00,
2013-06-03 19:45:00,57.0,39.0,29.82,WSW,247,0.0,0.0,51,0.00,,,0.05,TxWx,2013-06-03 23:45:00,
2013-06-03 19:50:00,58.0,40.0,29.82,WSW,247,0.0,0.0,51,0.00,,,0.05,TxWx,2013-06-03 23:50:00,
2013-06-03 19:55:00,58.0,39.0,29.82,WSW,247,0.0,0.0,49,0.00,,,0.05,TxWx,2013-06-03 23:55:00,
2013-06-03 20:00:00,57.0,37.0,29.82,WSW,247,0.0,0.0,49,0.00,,,0.05,TxWx,2013-06-04 00:00:00,
2013-06-03 20:05:00,57.0,37.0,29.82,WSW,247,0.0,0.0,48,0.00,,,0.05,TxWx,2013-06-04 00:05:00,
2013-06-03 20:10:00,57.0,37.0,29.81,WSW,247,0.0,0.0,47,0.00,,,0.05,TxWx,2013-06-04 00:10:00,
2013-06-03 20:16:00,57.0,37.0,29.82,WSW,247,0.0,0.0,47,0.00,,,0.05,TxWx,2013-06-04 00:16:00,
2013-06-03 20:21:00,56.0,36.0,29.82,WSW,247,0.0,0.0,47,0.00,,,0.05,TxWx,2013-06-04 00:21:00,
2013-06-03 20:26:00,56.0,36.0,29.82,WSW,247,0.0,0.0,48,0.00,,,0.05,TxWx,2013-06-04 00:26:00,
2013-06-03 20:31:00,56.0,37.0,29.82,WSW,247,0.0,0.0,48,0.00,,,0.05,TxWx,2013-06-04 00:31:00,
2013-06-03 20:36:00,55.0,36.0,29.82,WSW,247,0.0,0.0,50,0.00,,,0.05,TxWx,2013-06-04 00:36:00,
2013-06-03 20:41:00,56.0,38.0,29.82,WSW,247,0.0,0.0,51,0.00,,,0.05,TxWx,2013-06-04 00:41:00,
2013-06-03 20:46:00,56.0,39.0,29.82,WSW,247,0.0,0.0,53,0.00,,,0.05,TxWx,2013-06-04 00:46:00,
2013-06-03 20:49:00,44.0,40.0,29.88,WSW,247,0.0,0.0,85,0.00,,,0.00,TxWx,2013-06-04 00:49:00,
2013-06-03 20:50:00,44.0,40.0,29.88,WSW,247,0.0,0.0,85,0.00,,,0.00,TxWx,2013-06-04 00:50:00,
2013-06-03 20:51:00,55.0,39.0,29.82,WSW,247,0.0,0.0,54,0.00,,,0.05,TxWx,2013-06-04 00:51:00,
2013-06-03 20:52:00,44.0,40.0,29.88,WSW,247,0.0,0.0,85,0.00,,,0.00,TxWx,2013-06-04 00:52:00,
2013-06-03 20:53:00,44.0,40.0,29.88,WSW,247,0.0,0.0,85,0.00,,,0.00,TxWx,2013-06-04 00:53:00,
2013-06-03 20:54:00,44.0,40.0,29.88,WSW,247,0.0,0.0,85,0.00,,,0.00,TxWx,2013-06-04 00:54:00,
2013-06-03 20:55:00,44.0,40.0,29.88,WSW,247,0.0,0.0,85,0.00,,,0.00,TxWx,2013-06-04 00:55:00,
2013-06-03 20:56:00,55.0,39.0,29.82,WSW,247,0.0,0.0,55,0.00,,,0.05,TxWx,2013-06-04 00:56:00,
2013-06-03 21:01:00,55.0,39.0,29.82,WSW,247,0.0,0.0,56,0.00,,,0.05,TxWx,2013-06-04 01:01:00,
2013-06-03 21:07:00,55.0,39.0,29.83,WSW,247,0.0,0.0,55,0.00,,,0.05,TxWx,2013-06-04 01:07:00,
2013-06-03 21:12:00,54.0,38.0,29.83,WSW,247,0.0,0.0,56,0.00,,,0.05,TxWx,2013-06-04 01:12:00,
2013-06-03 21:17:00,54.0,38.0,29.83,WSW,247,0.0,0.0,55,0.00,,,0.05,TxWx,2013-06-04 01:17:00,
2013-06-03 21:22:00,54.0,38.0,29.83,WSW,247,0.0,0.0,55,0.00,,,0.05,TxWx,2013-06-04 01:22:00,
2013-06-03 21:27:00,54.0,38.0,29.84,WSW,247,0.0,0.0,54,0.00,,,0.05,TxWx,2013-06-04 01:27:00,
2013-06-03 21:32:00,54.0,38.0,29.84,WSW,247,0.0,0.0,55,0.00,,,0.05,TxWx,2013-06-04 01:32:00,
2013-06-03 21:37:00,54.0,38.0,29.84,WSW,247,0.0,0.0,55,0.00,,,0.05,TxWx,2013-06-04 01:37:00,
2013-06-03 21:42:00,54.0,38.0,29.84,WSW,247,0.0,0.0,55,0.00,,,0.05,TxWx,2013-06-04 01:42:00,
2013-06-03 21:47:00,54.0,38.0,29.84,WSW,247,0.0,0.0,55,0.00,,,0.05,TxWx,2013-06-04 01:47:00,
2013-06-03 21:53:00,54.0,38.0,29.84,WSW,247,0.0,0.0,55,0.00,,,0.05,TxWx,2013-06-04 01:53:00,
2013-06-03 21:58:00,54.0,38.0,29.85,WSW,247,0.0,0.0,55,0.00,,,0.05,TxWx,2013-06-04 01:58:00,
2013-06-03 22:03:00,53.0,37.0,29.85,WSW,247,0.0,0.0,56,0.00,,,0.05,TxWx,2013-06-04 02:03:00,
2013-06-03 22:08:00,53.0,38.0,29.85,WSW,247,0.0,0.0,56,0.00,,,0.05,TxWx,2013-06-04 02:08:00,
2013-06-03 22:13:00,54.0,39.0,29.85,WSW,247,0.0,0.0,56,0.00,,,0.05,TxWx,2013-06-04 02:13:00,
2013-06-03 22:18:00,53.0,38.0,29.85,WSW,247,0.0,0.0,56,0.00,,,0.05,TxWx,2013-06-04 02:18:00,
2013-06-03 22:23:00,53.0,38.0,29.85,WSW,247,0.0,0.0,57,0.00,,,0.05,TxWx,2013-06-04 02:23:00,
2013-06-03 22:28:00,53.0,38.0,29.85,WSW,247,0.0,0.0,57,0.00,,,0.05,TxWx,2013-06-04 02:28:00,
2013-06-03 22:33:00,53.0,38.0,29.85,WSW,247,0.0,0.0,57,0.00,,,0.05,TxWx,2013-06-04 02:33:00,
2013-06-03 22:38:00,53.0,38.0,29.86,WSW,247,0.0,0.0,58,0.00,,,0.05,TxWx,2013-06-04 02:38:00,
2013-06-03 22:44:00,53.0,38.0,29.85,WSW,247,0.0,0.0,58,0.00,,,0.05,TxWx,2013-06-04 02:44:00,
2013-06-03 22:49:00,53.0,39.0,29.85,WSW,247,0.0,0.0,58,0.00,,,0.05,TxWx,2013-06-04 02:49:00,
2013-06-03 22:54:00,52.0,38.0,29.85,WSW,247,0.0,0.0,59,0.00,,,0.05,TxWx,2013-06-04 02:54:00,
2013-06-03 22:59:00,52.0,38.0,29.85,WSW,247,0.0,0.0,59,0.00,,,0.05,TxWx,2013-06-04 02:59:00,
2013-06-03 23:04:00,52.0,39.0,29.85,WSW,247,0.0,0.0,60,0.00,,,0.05,TxWx,2013-06-04 03:04:00,
2013-06-03 23:09:00,51.0,38.0,29.85,WSW,247,0.0,0.0,61,0.00,,,0.05,TxWx,2013-06-04 03:09:00,
2013-06-03 23:10:00,47.0,41.0,29.91,WSW,247,0.0,0.0,81,0.00,,,0.00,TxWx,2013-06-04 03:10:00,
2013-06-03 23:14:00,52.0,39.0,29.85,WSW,247,0.0,0.0,62,0.00,,,0.05,TxWx,2013-06-04 03:14:00,
2013-06-03 23:19:00,51.0,39.0,29.86,WSW,247,0.0,0.0,63,0.00,,,0.05,TxWx,2013-06-04 03:19:00,
2013-06-03 23:24:00,52.0,39.0,29.86,WSW,247,0.0,0.0,64,0.00,,,0.05,TxWx,2013-06-04 03:24:00,
2013-06-03 23:29:00,51.0,40.0,29.85,WSW,247,0.0,0.0,66,0.00,,,0.05,TxWx,2013-06-04 03:29:00,
2013-06-03 23:34:00,50.0,40.0,29.86,WSW,247,0.0,0.0,67,0.00,,,0.05,TxWx,2013-06-04 03:34:00,
2013-06-03 23:39:00,50.0,40.0,29.85,WSW,247,0.0,0.0,69,0.00,,,0.05,TxWx,2013-06-04 03:39:00,
2013-06-03 23:44:00,50.0,40.0,29.86,WSW,247,0.0,0.0,69,0.00,,,0.05,TxWx,2013-06-04 03:44:00,
2013-06-03 23:49:00,50.0,40.0,29.86,WSW,247,0.0,0.0,70,0.00,,,0.05,TxWx,2013-06-04 03:49:00,
2013-06-03 23:54:00,50.0,40.0,29.86,WSW,247,0.0,0.0,68,0.00,,,0.05,TxWx,2013-06-04 03:54:00,